sensor_id;sensor_type;location;lat;lon;timestamp;P1;durP1;ratioP1;P2;durP2;ratioP2
45522;SDS011;31254;51.680;5.394;2023-03-14T00:00:07;3.30;;;1.27;;
45522;SDS011;31254;51.680;5.394;2023-03-14T00:02:37;3.00;;;0.70;;
45522;SDS011;31254;51.680;5.394;2023-03-14T00:05:07;5.18;;;0.75;;
45522;SDS011;31254;51.680;5.394;2023-03-14T00:07:36;6.30;;;1.05;;
45522;SDS011;31254;51.680;5.394;2023-03-14T00:10:05;6.00;;;1.08;;
45522;SDS011;31254;51.680;5.394;2023-03-14T00:12:37;5.60;;;1.23;;
45522;SDS011;31254;51.680;5.394;2023-03-14T00:15:03;6.78;;;1.38;;
45522;SDS011;31254;51.680;5.394;2023-03-14T00:17:33;5.18;;;1.52;;
45522;SDS011;31254;51.680;5.394;2023-03-14T00:20:02;9.32;;;1.40;;
45522;SDS011;31254;51.680;5.394;2023-03-14T00:22:36;4.95;;;1.35;;
45522;SDS011;31254;51.680;5.394;2023-03-14T00:25:06;8.32;;;1.48;;
45522;SDS011;31254;51.680;5.394;2023-03-14T00:27:34;5.63;;;1.20;;
45522;SDS011;31254;51.680;5.394;2023-03-14T00:30:01;6.30;;;1.27;;
45522;SDS011;31254;51.680;5.394;2023-03-14T00:32:29;4.65;;;1.25;;
45522;SDS011;31254;51.680;5.394;2023-03-14T00:34:56;8.50;;;1.40;;
45522;SDS011;31254;51.680;5.394;2023-03-14T00:37:22;6.55;;;1.60;;
45522;SDS011;31254;51.680;5.394;2023-03-14T00:39:54;11.38;;;1.42;;
45522;SDS011;31254;51.680;5.394;2023-03-14T00:42:20;8.70;;;1.75;;
45522;SDS011;31254;51.680;5.394;2023-03-14T00:44:47;6.40;;;1.23;;
45522;SDS011;31254;51.680;5.394;2023-03-14T00:47:16;7.38;;;1.45;;
45522;SDS011;31254;51.680;5.394;2023-03-14T00:49:43;5.93;;;0.95;;
45522;SDS011;31254;51.680;5.394;2023-03-14T00:52:09;6.40;;;1.50;;
45522;SDS011;31254;51.680;5.394;2023-03-14T00:54:39;8.02;;;1.52;;
45522;SDS011;31254;51.680;5.394;2023-03-14T00:57:05;5.40;;;1.08;;
45522;SDS011;31254;51.680;5.394;2023-03-14T00:59:32;6.38;;;1.08;;
45522;SDS011;31254;51.680;5.394;2023-03-14T01:02:01;11.90;;;1.73;;
45522;SDS011;31254;51.680;5.394;2023-03-14T01:04:31;6.45;;;1.30;;
45522;SDS011;31254;51.680;5.394;2023-03-14T01:06:58;7.57;;;0.90;;
45522;SDS011;31254;51.680;5.394;2023-03-14T01:09:25;6.50;;;1.00;;
45522;SDS011;31254;51.680;5.394;2023-03-14T01:11:51;6.50;;;1.00;;
45522;SDS011;31254;51.680;5.394;2023-03-14T01:14:18;7.40;;;1.10;;
45522;SDS011;31254;51.680;5.394;2023-03-14T01:16:45;9.35;;;1.35;;
45522;SDS011;31254;51.680;5.394;2023-03-14T01:19:14;10.63;;;1.13;;
45522;SDS011;31254;51.680;5.394;2023-03-14T01:21:43;5.03;;;1.27;;
45522;SDS011;31254;51.680;5.394;2023-03-14T01:24:11;5.00;;;1.15;;
45522;SDS011;31254;51.680;5.394;2023-03-14T01:26:38;7.53;;;1.20;;
45522;SDS011;31254;51.680;5.394;2023-03-14T01:29:07;7.65;;;1.08;;
45522;SDS011;31254;51.680;5.394;2023-03-14T01:31:33;7.53;;;1.50;;
45522;SDS011;31254;51.680;5.394;2023-03-14T01:34:00;10.98;;;1.25;;
45522;SDS011;31254;51.680;5.394;2023-03-14T01:36:29;10.00;;;1.52;;
45522;SDS011;31254;51.680;5.394;2023-03-14T01:38:58;9.75;;;1.45;;
45522;SDS011;31254;51.680;5.394;2023-03-14T01:41:28;7.63;;;1.00;;
45522;SDS011;31254;51.680;5.394;2023-03-14T01:43:54;5.72;;;1.08;;
45522;SDS011;31254;51.680;5.394;2023-03-14T01:46:26;13.55;;;1.45;;
45522;SDS011;31254;51.680;5.394;2023-03-14T01:54:19;5.78;;;1.00;;
45522;SDS011;31254;51.680;5.394;2023-03-14T01:56:57;6.05;;;1.85;;
45522;SDS011;31254;51.680;5.394;2023-03-14T01:59:48;5.93;;;1.00;;
45522;SDS011;31254;51.680;5.394;2023-03-14T02:02:20;9.07;;;1.30;;
45522;SDS011;31254;51.680;5.394;2023-03-14T02:04:47;7.65;;;1.27;;
45522;SDS011;31254;51.680;5.394;2023-03-14T02:07:19;5.43;;;1.00;;
45522;SDS011;31254;51.680;5.394;2023-03-14T02:09:46;3.53;;;0.82;;
45522;SDS011;31254;51.680;5.394;2023-03-14T02:12:15;6.75;;;1.00;;
45522;SDS011;31254;51.680;5.394;2023-03-14T02:14:46;7.45;;;0.90;;
45522;SDS011;31254;51.680;5.394;2023-03-14T02:17:16;6.28;;;1.25;;
45522;SDS011;31254;51.680;5.394;2023-03-14T02:22:14;8.35;;;1.30;;
45522;SDS011;31254;51.680;5.394;2023-03-14T02:27:20;8.85;;;1.80;;
45522;SDS011;31254;51.680;5.394;2023-03-14T02:29:51;5.78;;;1.40;;
45522;SDS011;31254;51.680;5.394;2023-03-14T02:32:21;8.32;;;1.73;;
45522;SDS011;31254;51.680;5.394;2023-03-14T02:34:54;7.03;;;1.40;;
45522;SDS011;31254;51.680;5.394;2023-03-14T02:37:25;7.45;;;1.23;;
45522;SDS011;31254;51.680;5.394;2023-03-14T02:39:59;11.43;;;1.40;;
45522;SDS011;31254;51.680;5.394;2023-03-14T02:42:25;10.73;;;1.60;;
45522;SDS011;31254;51.680;5.394;2023-03-14T02:44:54;12.75;;;2.28;;
45522;SDS011;31254;51.680;5.394;2023-03-14T02:47:26;11.73;;;1.60;;
45522;SDS011;31254;51.680;5.394;2023-03-14T02:49:57;10.52;;;2.08;;
45522;SDS011;31254;51.680;5.394;2023-03-14T02:52:30;6.13;;;1.40;;
45522;SDS011;31254;51.680;5.394;2023-03-14T02:54:56;10.65;;;1.67;;
45522;SDS011;31254;51.680;5.394;2023-03-14T02:57:23;7.30;;;1.55;;
45522;SDS011;31254;51.680;5.394;2023-03-14T02:59:50;7.30;;;1.40;;
45522;SDS011;31254;51.680;5.394;2023-03-14T03:02:19;8.48;;;1.70;;
45522;SDS011;31254;51.680;5.394;2023-03-14T03:04:48;9.77;;;1.45;;
45522;SDS011;31254;51.680;5.394;2023-03-14T03:07:15;6.40;;;1.50;;
45522;SDS011;31254;51.680;5.394;2023-03-14T03:09:42;13.45;;;1.80;;
45522;SDS011;31254;51.680;5.394;2023-03-14T03:12:08;6.05;;;1.65;;
45522;SDS011;31254;51.680;5.394;2023-03-14T03:14:41;9.90;;;1.90;;
45522;SDS011;31254;51.680;5.394;2023-03-14T03:17:07;9.77;;;1.98;;
45522;SDS011;31254;51.680;5.394;2023-03-14T03:19:37;7.93;;;2.13;;
45522;SDS011;31254;51.680;5.394;2023-03-14T03:22:08;8.45;;;1.73;;
45522;SDS011;31254;51.680;5.394;2023-03-14T03:24:35;9.48;;;1.38;;
45522;SDS011;31254;51.680;5.394;2023-03-14T03:27:05;9.25;;;1.45;;
45522;SDS011;31254;51.680;5.394;2023-03-14T03:29:34;8.40;;;1.55;;
45522;SDS011;31254;51.680;5.394;2023-03-14T03:32:00;10.30;;;2.15;;
45522;SDS011;31254;51.680;5.394;2023-03-14T03:34:27;8.65;;;1.40;;
45522;SDS011;31254;51.680;5.394;2023-03-14T03:36:57;7.55;;;1.70;;
45522;SDS011;31254;51.680;5.394;2023-03-14T03:39:26;10.57;;;1.50;;
45522;SDS011;31254;51.680;5.394;2023-03-14T03:41:55;8.23;;;1.30;;
45522;SDS011;31254;51.680;5.394;2023-03-14T03:44:21;7.60;;;1.58;;
45522;SDS011;31254;51.680;5.394;2023-03-14T03:46:48;5.32;;;0.98;;
45522;SDS011;31254;51.680;5.394;2023-03-14T03:49:15;9.80;;;2.55;;
45522;SDS011;31254;51.680;5.394;2023-03-14T03:51:42;4.88;;;1.30;;
45522;SDS011;31254;51.680;5.394;2023-03-14T03:54:10;8.02;;;1.55;;
45522;SDS011;31254;51.680;5.394;2023-03-14T03:56:39;4.72;;;1.42;;
45522;SDS011;31254;51.680;5.394;2023-03-14T03:59:05;6.95;;;1.58;;
45522;SDS011;31254;51.680;5.394;2023-03-14T04:01:32;6.28;;;1.05;;
45522;SDS011;31254;51.680;5.394;2023-03-14T04:03:59;7.18;;;1.10;;
45522;SDS011;31254;51.680;5.394;2023-03-14T04:06:26;7.15;;;1.20;;
45522;SDS011;31254;51.680;5.394;2023-03-14T04:08:53;5.35;;;0.80;;
45522;SDS011;31254;51.680;5.394;2023-03-14T04:11:22;6.72;;;1.13;;
45522;SDS011;31254;51.680;5.394;2023-03-14T04:13:48;5.80;;;1.10;;
45522;SDS011;31254;51.680;5.394;2023-03-14T04:16:20;7.55;;;1.00;;
45522;SDS011;31254;51.680;5.394;2023-03-14T04:18:48;5.47;;;0.80;;
45522;SDS011;31254;51.680;5.394;2023-03-14T04:21:15;11.13;;;1.23;;
45522;SDS011;31254;51.680;5.394;2023-03-14T04:23:42;7.60;;;1.23;;
45522;SDS011;31254;51.680;5.394;2023-03-14T04:26:14;5.57;;;0.98;;
45522;SDS011;31254;51.680;5.394;2023-03-14T04:28:42;5.28;;;1.00;;
45522;SDS011;31254;51.680;5.394;2023-03-14T04:31:13;4.93;;;1.10;;
45522;SDS011;31254;51.680;5.394;2023-03-14T04:33:44;5.53;;;0.90;;
45522;SDS011;31254;51.680;5.394;2023-03-14T04:36:11;5.05;;;0.80;;
45522;SDS011;31254;51.680;5.394;2023-03-14T04:38:41;5.35;;;1.02;;
45522;SDS011;31254;51.680;5.394;2023-03-14T04:41:08;5.95;;;0.80;;
45522;SDS011;31254;51.680;5.394;2023-03-14T04:43:37;5.82;;;0.98;;
45522;SDS011;31254;51.680;5.394;2023-03-14T04:46:04;5.63;;;1.33;;
45522;SDS011;31254;51.680;5.394;2023-03-14T04:48:31;4.80;;;1.15;;
45522;SDS011;31254;51.680;5.394;2023-03-14T04:50:58;3.38;;;0.60;;
45522;SDS011;31254;51.680;5.394;2023-03-14T04:53:27;3.60;;;0.88;;
45522;SDS011;31254;51.680;5.394;2023-03-14T04:55:56;8.75;;;1.15;;
45522;SDS011;31254;51.680;5.394;2023-03-14T04:58:23;5.72;;;1.13;;
45522;SDS011;31254;51.680;5.394;2023-03-14T05:00:50;3.58;;;0.80;;
45522;SDS011;31254;51.680;5.394;2023-03-14T05:03:17;3.17;;;0.90;;
45522;SDS011;31254;51.680;5.394;2023-03-14T05:05:45;3.17;;;0.82;;
45522;SDS011;31254;51.680;5.394;2023-03-14T05:08:12;4.43;;;1.20;;
45522;SDS011;31254;51.680;5.394;2023-03-14T05:10:39;8.75;;;1.77;;
45522;SDS011;31254;51.680;5.394;2023-03-14T05:13:07;3.25;;;1.05;;
45522;SDS011;31254;51.680;5.394;2023-03-14T05:15:43;3.80;;;1.00;;
45522;SDS011;31254;51.680;5.394;2023-03-14T05:18:12;3.72;;;0.82;;
45522;SDS011;31254;51.680;5.394;2023-03-14T05:20:41;3.88;;;1.20;;
45522;SDS011;31254;51.680;5.394;2023-03-14T05:23:09;5.18;;;1.02;;
45522;SDS011;31254;51.680;5.394;2023-03-14T05:25:38;3.50;;;0.77;;
45522;SDS011;31254;51.680;5.394;2023-03-14T05:28:05;3.47;;;1.00;;
45522;SDS011;31254;51.680;5.394;2023-03-14T05:30:32;5.35;;;1.10;;
45522;SDS011;31254;51.680;5.394;2023-03-14T05:33:00;6.63;;;1.10;;
45522;SDS011;31254;51.680;5.394;2023-03-14T05:35:26;2.42;;;0.88;;
45522;SDS011;31254;51.680;5.394;2023-03-14T05:37:58;4.78;;;1.20;;
45522;SDS011;31254;51.680;5.394;2023-03-14T05:40:25;2.03;;;0.90;;
45522;SDS011;31254;51.680;5.394;2023-03-14T05:42:54;4.15;;;1.30;;
45522;SDS011;31254;51.680;5.394;2023-03-14T05:45:21;5.30;;;1.27;;
45522;SDS011;31254;51.680;5.394;2023-03-14T05:47:50;6.95;;;1.30;;
45522;SDS011;31254;51.680;5.394;2023-03-14T05:50:19;3.20;;;1.17;;
45522;SDS011;31254;51.680;5.394;2023-03-14T05:52:48;8.73;;;1.90;;
45522;SDS011;31254;51.680;5.394;2023-03-14T05:55:15;3.38;;;1.33;;
45522;SDS011;31254;51.680;5.394;2023-03-14T05:57:44;3.10;;;1.50;;
45522;SDS011;31254;51.680;5.394;2023-03-14T06:00:11;4.38;;;1.83;;
45522;SDS011;31254;51.680;5.394;2023-03-14T06:02:38;4.28;;;1.42;;
45522;SDS011;31254;51.680;5.394;2023-03-14T06:05:07;6.28;;;1.75;;
45522;SDS011;31254;51.680;5.394;2023-03-14T06:07:34;5.93;;;1.98;;
45522;SDS011;31254;51.680;5.394;2023-03-14T06:10:03;6.45;;;1.63;;
45522;SDS011;31254;51.680;5.394;2023-03-14T06:12:33;7.13;;;1.73;;
45522;SDS011;31254;51.680;5.394;2023-03-14T06:15:00;3.38;;;1.40;;
45522;SDS011;31254;51.680;5.394;2023-03-14T06:17:26;4.53;;;1.90;;
45522;SDS011;31254;51.680;5.394;2023-03-14T06:19:55;5.97;;;2.03;;
45522;SDS011;31254;51.680;5.394;2023-03-14T06:22:22;5.68;;;1.80;;
45522;SDS011;31254;51.680;5.394;2023-03-14T06:24:49;4.85;;;2.10;;
45522;SDS011;31254;51.680;5.394;2023-03-14T06:27:18;6.13;;;2.50;;
45522;SDS011;31254;51.680;5.394;2023-03-14T06:29:45;5.45;;;1.95;;
45522;SDS011;31254;51.680;5.394;2023-03-14T06:32:14;7.80;;;2.08;;
45522;SDS011;31254;51.680;5.394;2023-03-14T06:34:41;6.43;;;1.85;;
45522;SDS011;31254;51.680;5.394;2023-03-14T06:37:08;4.38;;;2.17;;
45522;SDS011;31254;51.680;5.394;2023-03-14T06:39:34;4.95;;;2.00;;
45522;SDS011;31254;51.680;5.394;2023-03-14T06:42:03;5.82;;;2.00;;
45522;SDS011;31254;51.680;5.394;2023-03-14T06:44:31;5.25;;;2.38;;
45522;SDS011;31254;51.680;5.394;2023-03-14T06:47:00;3.83;;;2.08;;
45522;SDS011;31254;51.680;5.394;2023-03-14T06:49:29;7.65;;;2.22;;
45522;SDS011;31254;51.680;5.394;2023-03-14T06:51:56;5.53;;;2.13;;
45522;SDS011;31254;51.680;5.394;2023-03-14T06:54:23;5.38;;;2.22;;
45522;SDS011;31254;51.680;5.394;2023-03-14T06:56:51;5.30;;;2.60;;
45522;SDS011;31254;51.680;5.394;2023-03-14T06:59:18;4.97;;;2.65;;
45522;SDS011;31254;51.680;5.394;2023-03-14T07:01:47;5.95;;;2.92;;
45522;SDS011;31254;51.680;5.394;2023-03-14T07:04:17;6.05;;;3.70;;
45522;SDS011;31254;51.680;5.394;2023-03-14T07:06:44;6.38;;;3.65;;
45522;SDS011;31254;51.680;5.394;2023-03-14T07:09:14;6.50;;;3.20;;
45522;SDS011;31254;51.680;5.394;2023-03-14T07:11:43;3.38;;;1.67;;
45522;SDS011;31254;51.680;5.394;2023-03-14T07:14:09;2.25;;;0.88;;
45522;SDS011;31254;51.680;5.394;2023-03-14T07:16:38;2.35;;;0.90;;
45522;SDS011;31254;51.680;5.394;2023-03-14T07:19:05;0.82;;;0.50;;
45522;SDS011;31254;51.680;5.394;2023-03-14T07:21:34;1.45;;;0.57;;
45522;SDS011;31254;51.680;5.394;2023-03-14T07:24:03;3.53;;;0.77;;
45522;SDS011;31254;51.680;5.394;2023-03-14T07:26:32;2.55;;;0.50;;
45522;SDS011;31254;51.680;5.394;2023-03-14T07:28:59;1.33;;;0.40;;
45522;SDS011;31254;51.680;5.394;2023-03-14T07:31:26;1.85;;;0.50;;
45522;SDS011;31254;51.680;5.394;2023-03-14T07:33:53;1.95;;;0.75;;
45522;SDS011;31254;51.680;5.394;2023-03-14T07:36:19;2.78;;;0.60;;
45522;SDS011;31254;51.680;5.394;2023-03-14T07:38:46;2.13;;;0.70;;
45522;SDS011;31254;51.680;5.394;2023-03-14T07:41:13;2.03;;;0.82;;
45522;SDS011;31254;51.680;5.394;2023-03-14T07:43:40;3.63;;;0.90;;
45522;SDS011;31254;51.680;5.394;2023-03-14T07:46:07;1.30;;;0.90;;
45522;SDS011;31254;51.680;5.394;2023-03-14T07:48:34;2.30;;;1.00;;
45522;SDS011;31254;51.680;5.394;2023-03-14T07:51:03;2.30;;;0.77;;
45522;SDS011;31254;51.680;5.394;2023-03-14T07:53:29;2.60;;;0.90;;
45522;SDS011;31254;51.680;5.394;2023-03-14T07:55:56;2.40;;;0.90;;
45522;SDS011;31254;51.680;5.394;2023-03-14T07:58:22;3.03;;;1.20;;
45522;SDS011;31254;51.680;5.394;2023-03-14T08:00:49;3.08;;;0.98;;
45522;SDS011;31254;51.680;5.394;2023-03-14T08:03:17;5.05;;;0.82;;
45522;SDS011;31254;51.680;5.394;2023-03-14T08:05:46;4.75;;;1.10;;
45522;SDS011;31254;51.680;5.394;2023-03-14T08:08:14;4.28;;;1.05;;
45522;SDS011;31254;51.680;5.394;2023-03-14T08:10:41;2.97;;;0.60;;
45522;SDS011;31254;51.680;5.394;2023-03-14T08:13:08;3.45;;;0.75;;
45522;SDS011;31254;51.680;5.394;2023-03-14T08:15:36;4.10;;;0.70;;
45522;SDS011;31254;51.680;5.394;2023-03-14T08:18:03;3.95;;;0.85;;
45522;SDS011;31254;51.680;5.394;2023-03-14T08:20:31;2.65;;;0.85;;
45522;SDS011;31254;51.680;5.394;2023-03-14T08:22:58;5.35;;;0.70;;
45522;SDS011;31254;51.680;5.394;2023-03-14T08:25:26;5.43;;;1.10;;
45522;SDS011;31254;51.680;5.394;2023-03-14T08:27:56;2.03;;;0.80;;
45522;SDS011;31254;51.680;5.394;2023-03-14T08:30:25;4.90;;;0.70;;
45522;SDS011;31254;51.680;5.394;2023-03-14T08:32:52;3.63;;;0.90;;
45522;SDS011;31254;51.680;5.394;2023-03-14T08:35:19;1.85;;;0.65;;
45522;SDS011;31254;51.680;5.394;2023-03-14T08:37:45;2.83;;;0.98;;
45522;SDS011;31254;51.680;5.394;2023-03-14T08:40:13;3.85;;;1.08;;
45522;SDS011;31254;51.680;5.394;2023-03-14T08:42:40;5.43;;;1.20;;
45522;SDS011;31254;51.680;5.394;2023-03-14T08:45:07;9.13;;;1.40;;
45522;SDS011;31254;51.680;5.394;2023-03-14T08:47:34;3.97;;;1.20;;
45522;SDS011;31254;51.680;5.394;2023-03-14T08:50:02;1.23;;;0.60;;
45522;SDS011;31254;51.680;5.394;2023-03-14T08:52:35;2.65;;;0.85;;
45522;SDS011;31254;51.680;5.394;2023-03-14T08:55:07;2.22;;;0.55;;
45522;SDS011;31254;51.680;5.394;2023-03-14T08:57:35;2.00;;;0.40;;
45522;SDS011;31254;51.680;5.394;2023-03-14T09:00:03;1.30;;;0.40;;
45522;SDS011;31254;51.680;5.394;2023-03-14T09:02:36;1.88;;;0.80;;
45522;SDS011;31254;51.680;5.394;2023-03-14T09:05:05;4.97;;;1.02;;
45522;SDS011;31254;51.680;5.394;2023-03-14T09:07:32;3.22;;;0.70;;
45522;SDS011;31254;51.680;5.394;2023-03-14T09:09:59;5.38;;;0.82;;
45522;SDS011;31254;51.680;5.394;2023-03-14T09:12:26;4.57;;;0.85;;
45522;SDS011;31254;51.680;5.394;2023-03-14T09:14:52;1.75;;;0.63;;
45522;SDS011;31254;51.680;5.394;2023-03-14T09:17:21;4.10;;;0.50;;
45522;SDS011;31254;51.680;5.394;2023-03-14T09:19:50;0.45;;;0.45;;
45522;SDS011;31254;51.680;5.394;2023-03-14T09:22:19;2.50;;;0.52;;
45522;SDS011;31254;51.680;5.394;2023-03-14T09:24:46;0.40;;;0.20;;
45522;SDS011;31254;51.680;5.394;2023-03-14T09:27:13;2.38;;;0.50;;
45522;SDS011;31254;51.680;5.394;2023-03-14T09:29:40;1.13;;;0.35;;
45522;SDS011;31254;51.680;5.394;2023-03-14T09:32:06;1.83;;;0.30;;
45522;SDS011;31254;51.680;5.394;2023-03-14T09:34:35;3.00;;;0.30;;
45522;SDS011;31254;51.680;5.394;2023-03-14T09:37:02;1.38;;;0.20;;
45522;SDS011;31254;51.680;5.394;2023-03-14T09:39:29;0.85;;;0.40;;
45522;SDS011;31254;51.680;5.394;2023-03-14T09:41:56;2.55;;;0.50;;
45522;SDS011;31254;51.680;5.394;2023-03-14T09:44:32;0.82;;;0.38;;
45522;SDS011;31254;51.680;5.394;2023-03-14T09:47:03;2.75;;;0.43;;
45522;SDS011;31254;51.680;5.394;2023-03-14T09:49:34;2.65;;;0.57;;
45522;SDS011;31254;51.680;5.394;2023-03-14T09:52:15;3.03;;;1.00;;
45522;SDS011;31254;51.680;5.394;2023-03-14T09:54:55;3.72;;;0.70;;
45522;SDS011;31254;51.680;5.394;2023-03-14T09:57:26;6.78;;;0.90;;
45522;SDS011;31254;51.680;5.394;2023-03-14T09:59:54;2.83;;;0.70;;
45522;SDS011;31254;51.680;5.394;2023-03-14T10:02:34;6.65;;;0.77;;
45522;SDS011;31254;51.680;5.394;2023-03-14T10:05:01;4.82;;;0.77;;
45522;SDS011;31254;51.680;5.394;2023-03-14T10:07:37;12.10;;;1.13;;
45522;SDS011;31254;51.680;5.394;2023-03-14T10:10:08;4.90;;;0.50;;
45522;SDS011;31254;51.680;5.394;2023-03-14T10:12:44;5.30;;;0.90;;
45522;SDS011;31254;51.680;5.394;2023-03-14T10:15:13;6.78;;;1.05;;
45522;SDS011;31254;51.680;5.394;2023-03-14T10:17:46;6.00;;;0.73;;
45522;SDS011;31254;51.680;5.394;2023-03-14T10:20:26;8.68;;;1.08;;
45522;SDS011;31254;51.680;5.394;2023-03-14T10:22:53;7.25;;;0.98;;
45522;SDS011;31254;51.680;5.394;2023-03-14T10:25:27;4.05;;;1.20;;
45522;SDS011;31254;51.680;5.394;2023-03-14T10:27:56;7.75;;;1.02;;
45522;SDS011;31254;51.680;5.394;2023-03-14T10:30:47;12.32;;;1.77;;
45522;SDS011;31254;51.680;5.394;2023-03-14T10:33:24;6.90;;;1.52;;
45522;SDS011;31254;51.680;5.394;2023-03-14T10:35:55;6.03;;;1.15;;
45522;SDS011;31254;51.680;5.394;2023-03-14T10:38:26;8.88;;;1.15;;
45522;SDS011;31254;51.680;5.394;2023-03-14T10:40:55;16.93;;;2.10;;
45522;SDS011;31254;51.680;5.394;2023-03-14T10:43:25;14.52;;;1.65;;
45522;SDS011;31254;51.680;5.394;2023-03-14T10:45:55;7.53;;;1.10;;
45522;SDS011;31254;51.680;5.394;2023-03-14T10:48:29;11.00;;;1.88;;
45522;SDS011;31254;51.680;5.394;2023-03-14T10:53:26;8.52;;;1.77;;
45522;SDS011;31254;51.680;5.394;2023-03-14T10:55:55;11.95;;;1.98;;
45522;SDS011;31254;51.680;5.394;2023-03-14T10:58:26;12.50;;;2.25;;
45522;SDS011;31254;51.680;5.394;2023-03-14T11:03:51;11.88;;;2.10;;
45522;SDS011;31254;51.680;5.394;2023-03-14T11:06:28;14.45;;;2.40;;
45522;SDS011;31254;51.680;5.394;2023-03-14T11:09:02;15.77;;;1.60;;
45522;SDS011;31254;51.680;5.394;2023-03-14T11:11:39;10.40;;;1.55;;
45522;SDS011;31254;51.680;5.394;2023-03-14T11:27:41;19.15;;;2.40;;
45522;SDS011;31254;51.680;5.394;2023-03-14T11:35:25;4.35;;;1.27;;
45522;SDS011;31254;51.680;5.394;2023-03-14T11:40:35;13.30;;;1.92;;
45522;SDS011;31254;51.680;5.394;2023-03-14T11:45:35;14.77;;;2.53;;
45522;SDS011;31254;51.680;5.394;2023-03-14T11:48:10;7.75;;;1.63;;
45522;SDS011;31254;51.680;5.394;2023-03-14T11:51:01;13.52;;;2.40;;
45522;SDS011;31254;51.680;5.394;2023-03-14T11:59:18;8.95;;;1.65;;
45522;SDS011;31254;51.680;5.394;2023-03-14T12:04:25;10.48;;;1.70;;
45522;SDS011;31254;51.680;5.394;2023-03-14T12:07:16;8.73;;;1.55;;
45522;SDS011;31254;51.680;5.394;2023-03-14T12:09:45;12.38;;;2.38;;
45522;SDS011;31254;51.680;5.394;2023-03-14T12:12:16;13.73;;;1.85;;
45522;SDS011;31254;51.680;5.394;2023-03-14T12:14:56;15.23;;;1.83;;
45522;SDS011;31254;51.680;5.394;2023-03-14T12:17:34;11.23;;;1.45;;
45522;SDS011;31254;51.680;5.394;2023-03-14T12:22:47;28.02;;;2.92;;
45522;SDS011;31254;51.680;5.394;2023-03-14T12:27:48;26.92;;;3.65;;
45522;SDS011;31254;51.680;5.394;2023-03-14T12:30:28;20.30;;;2.90;;
45522;SDS011;31254;51.680;5.394;2023-03-14T12:33:11;17.48;;;2.65;;
45522;SDS011;31254;51.680;5.394;2023-03-14T12:35:39;10.20;;;1.73;;
45522;SDS011;31254;51.680;5.394;2023-03-14T12:38:11;17.23;;;2.40;;
45522;SDS011;31254;51.680;5.394;2023-03-14T12:43:46;15.20;;;2.15;;
45522;SDS011;31254;51.680;5.394;2023-03-14T12:54:06;2.83;;;0.52;;
45522;SDS011;31254;51.680;5.394;2023-03-14T12:59:29;7.30;;;1.27;;
45522;SDS011;31254;51.680;5.394;2023-03-14T13:04:43;9.37;;;1.77;;
45522;SDS011;31254;51.680;5.394;2023-03-14T13:07:29;8.45;;;1.33;;
45522;SDS011;31254;51.680;5.394;2023-03-14T13:15:31;4.60;;;1.23;;
45522;SDS011;31254;51.680;5.394;2023-03-14T13:18:02;8.43;;;1.10;;
45522;SDS011;31254;51.680;5.394;2023-03-14T13:20:53;7.45;;;1.58;;
45522;SDS011;31254;51.680;5.394;2023-03-14T13:23:25;10.70;;;1.30;;
45522;SDS011;31254;51.680;5.394;2023-03-14T13:25:54;9.88;;;1.58;;
45522;SDS011;31254;51.680;5.394;2023-03-14T13:28:24;10.38;;;1.80;;
45522;SDS011;31254;51.680;5.394;2023-03-14T13:30:59;8.40;;;1.27;;
45522;SDS011;31254;51.680;5.394;2023-03-14T13:33:28;7.68;;;1.45;;
45522;SDS011;31254;51.680;5.394;2023-03-14T13:35:57;12.48;;;1.80;;
45522;SDS011;31254;51.680;5.394;2023-03-14T13:38:28;4.22;;;1.30;;
45522;SDS011;31254;51.680;5.394;2023-03-14T13:40:56;10.73;;;1.90;;
45522;SDS011;31254;51.680;5.394;2023-03-14T13:43:32;10.52;;;1.98;;
45522;SDS011;31254;51.680;5.394;2023-03-14T13:46:06;5.93;;;1.38;;
45522;SDS011;31254;51.680;5.394;2023-03-14T13:48:44;6.35;;;1.23;;
45522;SDS011;31254;51.680;5.394;2023-03-14T13:51:17;8.10;;;1.50;;
45522;SDS011;31254;51.680;5.394;2023-03-14T13:53:45;13.48;;;1.77;;
45522;SDS011;31254;51.680;5.394;2023-03-14T13:56:30;13.95;;;1.40;;
45522;SDS011;31254;51.680;5.394;2023-03-14T13:58:58;9.32;;;1.27;;
45522;SDS011;31254;51.680;5.394;2023-03-14T14:01:35;12.18;;;1.73;;
45522;SDS011;31254;51.680;5.394;2023-03-14T14:04:07;5.60;;;0.98;;
45522;SDS011;31254;51.680;5.394;2023-03-14T14:06:47;4.03;;;0.60;;
45522;SDS011;31254;51.680;5.394;2023-03-14T14:09:23;8.88;;;1.15;;
45522;SDS011;31254;51.680;5.394;2023-03-14T14:12:07;7.80;;;1.05;;
45522;SDS011;31254;51.680;5.394;2023-03-14T14:14:43;3.88;;;0.95;;
45522;SDS011;31254;51.680;5.394;2023-03-14T14:17:12;6.38;;;1.20;;
45522;SDS011;31254;51.680;5.394;2023-03-14T14:19:46;7.38;;;1.42;;
45522;SDS011;31254;51.680;5.394;2023-03-14T14:22:14;10.60;;;1.58;;
45522;SDS011;31254;51.680;5.394;2023-03-14T14:24:41;7.93;;;1.20;;
45522;SDS011;31254;51.680;5.394;2023-03-14T14:27:15;15.48;;;1.67;;
45522;SDS011;31254;51.680;5.394;2023-03-14T14:29:56;7.32;;;1.02;;
45522;SDS011;31254;51.680;5.394;2023-03-14T14:32:35;7.65;;;1.75;;
45522;SDS011;31254;51.680;5.394;2023-03-14T14:35:04;5.13;;;1.08;;
45522;SDS011;31254;51.680;5.394;2023-03-14T14:37:32;6.55;;;1.10;;
45522;SDS011;31254;51.680;5.394;2023-03-14T14:40:06;8.40;;;1.77;;
45522;SDS011;31254;51.680;5.394;2023-03-14T14:42:39;9.10;;;1.50;;
45522;SDS011;31254;51.680;5.394;2023-03-14T14:45:09;5.47;;;1.00;;
45522;SDS011;31254;51.680;5.394;2023-03-14T14:47:49;5.22;;;1.02;;
45522;SDS011;31254;51.680;5.394;2023-03-14T14:53:02;8.27;;;1.10;;
45522;SDS011;31254;51.680;5.394;2023-03-14T14:55:49;10.23;;;1.13;;
45522;SDS011;31254;51.680;5.394;2023-03-14T15:00:59;7.35;;;2.95;;
45522;SDS011;31254;51.680;5.394;2023-03-14T15:03:37;9.63;;;1.05;;
45522;SDS011;31254;51.680;5.394;2023-03-14T15:06:08;6.95;;;1.73;;
45522;SDS011;31254;51.680;5.394;2023-03-14T15:08:39;8.07;;;1.17;;
45522;SDS011;31254;51.680;5.394;2023-03-14T15:11:08;8.45;;;1.40;;
45522;SDS011;31254;51.680;5.394;2023-03-14T15:13:42;6.13;;;0.93;;
45522;SDS011;31254;51.680;5.394;2023-03-14T15:16:10;7.07;;;0.80;;
45522;SDS011;31254;51.680;5.394;2023-03-14T15:18:38;9.40;;;1.08;;
45522;SDS011;31254;51.680;5.394;2023-03-14T15:21:08;6.45;;;0.88;;
45522;SDS011;31254;51.680;5.394;2023-03-14T15:23:38;6.40;;;0.90;;
45522;SDS011;31254;51.680;5.394;2023-03-14T15:26:10;8.82;;;1.10;;
45522;SDS011;31254;51.680;5.394;2023-03-14T15:28:39;4.20;;;0.80;;
45522;SDS011;31254;51.680;5.394;2023-03-14T15:31:08;6.45;;;0.68;;
45522;SDS011;31254;51.680;5.394;2023-03-14T15:33:36;6.68;;;0.90;;
45522;SDS011;31254;51.680;5.394;2023-03-14T15:36:06;6.05;;;1.00;;
45522;SDS011;31254;51.680;5.394;2023-03-14T15:39:04;10.55;;;1.40;;
45522;SDS011;31254;51.680;5.394;2023-03-14T15:41:33;8.45;;;1.30;;
45522;SDS011;31254;51.680;5.394;2023-03-14T15:44:07;9.52;;;1.10;;
45522;SDS011;31254;51.680;5.394;2023-03-14T15:46:34;11.18;;;2.03;;
45522;SDS011;31254;51.680;5.394;2023-03-14T15:49:01;8.40;;;1.02;;
45522;SDS011;31254;51.680;5.394;2023-03-14T15:51:27;5.43;;;0.98;;
45522;SDS011;31254;51.680;5.394;2023-03-14T15:53:56;10.63;;;1.33;;
45522;SDS011;31254;51.680;5.394;2023-03-14T15:56:25;10.80;;;1.67;;
45522;SDS011;31254;51.680;5.394;2023-03-14T15:58:54;9.95;;;1.60;;
45522;SDS011;31254;51.680;5.394;2023-03-14T16:01:22;6.82;;;1.40;;
45522;SDS011;31254;51.680;5.394;2023-03-14T16:03:49;7.80;;;1.90;;
45522;SDS011;31254;51.680;5.394;2023-03-14T16:06:19;8.32;;;1.48;;
45522;SDS011;31254;51.680;5.394;2023-03-14T16:08:46;12.95;;;2.83;;
45522;SDS011;31254;51.680;5.394;2023-03-14T16:11:13;8.13;;;1.20;;
45522;SDS011;31254;51.680;5.394;2023-03-14T16:13:46;10.90;;;2.10;;
45522;SDS011;31254;51.680;5.394;2023-03-14T16:16:13;11.32;;;1.95;;
45522;SDS011;31254;51.680;5.394;2023-03-14T16:18:41;12.95;;;1.70;;
45522;SDS011;31254;51.680;5.394;2023-03-14T16:21:10;6.05;;;1.52;;